sensor_id;sensor_type;location;lat;lon;timestamp;P1;durP1;ratioP1;P2;durP2;ratioP2
8825;SDS011;4449;50.872;4.714;2022-10-23T00:01:41;5.68;;;4.47;;
8825;SDS011;4449;50.872;4.714;2022-10-23T00:04:11;7.47;;;5.15;;
8825;SDS011;4449;50.872;4.714;2022-10-23T00:06:39;7.35;;;5.40;;
8825;SDS011;4449;50.872;4.714;2022-10-23T00:09:09;13.07;;;5.90;;
8825;SDS011;4449;50.872;4.714;2022-10-23T00:11:38;10.87;;;6.17;;
8825;SDS011;4449;50.872;4.714;2022-10-23T00:14:06;8.98;;;6.18;;
8825;SDS011;4449;50.872;4.714;2022-10-23T00:16:33;8.20;;;4.85;;
8825;SDS011;4449;50.872;4.714;2022-10-23T00:19:01;5.90;;;4.18;;
8825;SDS011;4449;50.872;4.714;2022-10-23T00:21:30;5.15;;;3.67;;
8825;SDS011;4449;50.872;4.714;2022-10-23T00:23:57;7.43;;;4.18;;
8825;SDS011;4449;50.872;4.714;2022-10-23T00:26:27;6.07;;;4.07;;
8825;SDS011;4449;50.872;4.714;2022-10-23T00:28:54;10.30;;;4.20;;
8825;SDS011;4449;50.872;4.714;2022-10-23T00:31:22;5.20;;;4.15;;
8825;SDS011;4449;50.872;4.714;2022-10-23T00:33:50;8.43;;;4.28;;
8825;SDS011;4449;50.872;4.714;2022-10-23T00:36:19;8.82;;;4.03;;
8825;SDS011;4449;50.872;4.714;2022-10-23T00:38:47;4.03;;;3.60;;
8825;SDS011;4449;50.872;4.714;2022-10-23T00:41:16;6.75;;;4.20;;
8825;SDS011;4449;50.872;4.714;2022-10-23T00:43:57;4.00;;;3.60;;
8825;SDS011;4449;50.872;4.714;2022-10-23T00:46:25;4.80;;;4.00;;
8825;SDS011;4449;50.872;4.714;2022-10-23T00:48:52;4.28;;;3.88;;
8825;SDS011;4449;50.872;4.714;2022-10-23T00:51:20;8.43;;;4.43;;
8825;SDS011;4449;50.872;4.714;2022-10-23T00:53:49;6.28;;;3.75;;
8825;SDS011;4449;50.872;4.714;2022-10-23T00:56:18;5.43;;;4.50;;
8825;SDS011;4449;50.872;4.714;2022-10-23T00:58:46;6.95;;;4.30;;
8825;SDS011;4449;50.872;4.714;2022-10-23T01:01:17;6.78;;;4.07;;
8825;SDS011;4449;50.872;4.714;2022-10-23T01:03:45;6.53;;;4.03;;
8825;SDS011;4449;50.872;4.714;2022-10-23T01:06:14;7.88;;;4.28;;
8825;SDS011;4449;50.872;4.714;2022-10-23T01:08:45;5.65;;;3.90;;
8825;SDS011;4449;50.872;4.714;2022-10-23T01:11:15;5.47;;;3.40;;
8825;SDS011;4449;50.872;4.714;2022-10-23T01:13:47;4.10;;;3.13;;
8825;SDS011;4449;50.872;4.714;2022-10-23T01:16:21;9.27;;;3.53;;
8825;SDS011;4449;50.872;4.714;2022-10-23T01:18:51;4.75;;;3.08;;
8825;SDS011;4449;50.872;4.714;2022-10-23T01:21:25;4.93;;;3.45;;
8825;SDS011;4449;50.872;4.714;2022-10-23T01:26:46;6.82;;;3.22;;
8825;SDS011;4449;50.872;4.714;2022-10-23T01:29:19;4.50;;;3.30;;
8825;SDS011;4449;50.872;4.714;2022-10-23T01:31:53;4.93;;;3.35;;
8825;SDS011;4449;50.872;4.714;2022-10-23T01:34:23;3.92;;;3.33;;
8825;SDS011;4449;50.872;4.714;2022-10-23T01:36:52;3.75;;;2.97;;
8825;SDS011;4449;50.872;4.714;2022-10-23T01:39:21;6.75;;;3.33;;
8825;SDS011;4449;50.872;4.714;2022-10-23T01:41:52;4.22;;;3.10;;
8825;SDS011;4449;50.872;4.714;2022-10-23T01:44:22;5.00;;;3.00;;
8825;SDS011;4449;50.872;4.714;2022-10-23T01:46:51;5.15;;;3.40;;
8825;SDS011;4449;50.872;4.714;2022-10-23T01:49:19;4.80;;;2.92;;
8825;SDS011;4449;50.872;4.714;2022-10-23T01:51:48;4.93;;;3.20;;
8825;SDS011;4449;50.872;4.714;2022-10-23T01:54:17;3.53;;;3.10;;
8825;SDS011;4449;50.872;4.714;2022-10-23T01:56:46;5.68;;;2.90;;
8825;SDS011;4449;50.872;4.714;2022-10-23T01:59:15;3.97;;;3.03;;
8825;SDS011;4449;50.872;4.714;2022-10-23T02:01:46;3.35;;;2.70;;
8825;SDS011;4449;50.872;4.714;2022-10-23T02:04:17;3.58;;;2.80;;
8825;SDS011;4449;50.872;4.714;2022-10-23T02:06:45;4.00;;;2.80;;
8825;SDS011;4449;50.872;4.714;2022-10-23T02:09:13;4.68;;;2.55;;
8825;SDS011;4449;50.872;4.714;2022-10-23T02:11:43;4.00;;;2.75;;
8825;SDS011;4449;50.872;4.714;2022-10-23T02:14:15;3.50;;;2.55;;
8825;SDS011;4449;50.872;4.714;2022-10-23T02:16:48;3.65;;;3.00;;
8825;SDS011;4449;50.872;4.714;2022-10-23T02:19:19;5.78;;;3.00;;
8825;SDS011;4449;50.872;4.714;2022-10-23T02:21:49;2.85;;;2.60;;
8825;SDS011;4449;50.872;4.714;2022-10-23T02:24:19;6.27;;;2.97;;
8825;SDS011;4449;50.872;4.714;2022-10-23T02:26:48;5.88;;;2.97;;
8825;SDS011;4449;50.872;4.714;2022-10-23T02:29:18;3.05;;;2.80;;
8825;SDS011;4449;50.872;4.714;2022-10-23T02:31:48;4.53;;;2.38;;
8825;SDS011;4449;50.872;4.714;2022-10-23T02:34:16;3.22;;;2.92;;
8825;SDS011;4449;50.872;4.714;2022-10-23T02:36:44;3.42;;;2.92;;
8825;SDS011;4449;50.872;4.714;2022-10-23T02:39:12;3.10;;;2.60;;
8825;SDS011;4449;50.872;4.714;2022-10-23T02:41:41;6.38;;;3.00;;
8825;SDS011;4449;50.872;4.714;2022-10-23T02:44:16;3.40;;;3.15;;
8825;SDS011;4449;50.872;4.714;2022-10-23T02:46:52;4.50;;;2.80;;
8825;SDS011;4449;50.872;4.714;2022-10-23T02:49:23;5.05;;;2.78;;
8825;SDS011;4449;50.872;4.714;2022-10-23T02:51:58;4.30;;;2.57;;
8825;SDS011;4449;50.872;4.714;2022-10-23T02:54:31;6.97;;;2.80;;
8825;SDS011;4449;50.872;4.714;2022-10-23T02:57:04;5.20;;;2.65;;
8825;SDS011;4449;50.872;4.714;2022-10-23T02:59:34;6.47;;;3.20;;
8825;SDS011;4449;50.872;4.714;2022-10-23T03:02:05;5.18;;;3.08;;
8825;SDS011;4449;50.872;4.714;2022-10-23T03:04:35;4.80;;;3.20;;
8825;SDS011;4449;50.872;4.714;2022-10-23T03:07:04;4.35;;;2.80;;
8825;SDS011;4449;50.872;4.714;2022-10-23T03:09:32;5.95;;;2.90;;
8825;SDS011;4449;50.872;4.714;2022-10-23T03:11:59;4.60;;;3.10;;
8825;SDS011;4449;50.872;4.714;2022-10-23T03:14:27;6.13;;;2.72;;
8825;SDS011;4449;50.872;4.714;2022-10-23T03:16:55;2.65;;;2.35;;
8825;SDS011;4449;50.872;4.714;2022-10-23T03:19:24;2.85;;;2.53;;
8825;SDS011;4449;50.872;4.714;2022-10-23T03:21:52;4.20;;;2.63;;
8825;SDS011;4449;50.872;4.714;2022-10-23T03:24:19;2.47;;;2.33;;
8825;SDS011;4449;50.872;4.714;2022-10-23T03:26:47;5.35;;;2.80;;
8825;SDS011;4449;50.872;4.714;2022-10-23T03:29:15;4.47;;;2.50;;
8825;SDS011;4449;50.872;4.714;2022-10-23T03:31:42;3.20;;;2.90;;
8825;SDS011;4449;50.872;4.714;2022-10-23T03:34:10;4.55;;;2.83;;
8825;SDS011;4449;50.872;4.714;2022-10-23T03:36:40;2.60;;;2.40;;
8825;SDS011;4449;50.872;4.714;2022-10-23T03:39:08;4.15;;;2.72;;
8825;SDS011;4449;50.872;4.714;2022-10-23T03:41:36;3.20;;;2.72;;
8825;SDS011;4449;50.872;4.714;2022-10-23T03:44:04;3.90;;;2.60;;
8825;SDS011;4449;50.872;4.714;2022-10-23T03:46:31;4.15;;;2.50;;
8825;SDS011;4449;50.872;4.714;2022-10-23T03:48:59;2.72;;;2.35;;
8825;SDS011;4449;50.872;4.714;2022-10-23T03:51:27;4.05;;;2.40;;
8825;SDS011;4449;50.872;4.714;2022-10-23T03:53:56;3.20;;;2.63;;
8825;SDS011;4449;50.872;4.714;2022-10-23T03:56:24;6.68;;;2.65;;
8825;SDS011;4449;50.872;4.714;2022-10-23T03:58:52;3.85;;;2.50;;
8825;SDS011;4449;50.872;4.714;2022-10-23T04:01:19;2.53;;;2.25;;
8825;SDS011;4449;50.872;4.714;2022-10-23T04:03:47;2.20;;;2.10;;
8825;SDS011;4449;50.872;4.714;2022-10-23T04:06:15;2.53;;;2.25;;
8825;SDS011;4449;50.872;4.714;2022-10-23T04:08:42;2.80;;;2.37;;
8825;SDS011;4449;50.872;4.714;2022-10-23T04:11:12;3.40;;;2.60;;
8825;SDS011;4449;50.872;4.714;2022-10-23T04:13:39;4.20;;;2.20;;
8825;SDS011;4449;50.872;4.714;2022-10-23T04:16:07;5.60;;;2.90;;
8825;SDS011;4449;50.872;4.714;2022-10-23T04:18:35;4.18;;;2.58;;
8825;SDS011;4449;50.872;4.714;2022-10-23T04:21:02;4.40;;;2.40;;
8825;SDS011;4449;50.872;4.714;2022-10-23T04:23:30;3.20;;;2.40;;
8825;SDS011;4449;50.872;4.714;2022-10-23T04:25:58;3.25;;;2.40;;
8825;SDS011;4449;50.872;4.714;2022-10-23T04:28:27;2.67;;;2.47;;
8825;SDS011;4449;50.872;4.714;2022-10-23T04:30:55;2.95;;;2.35;;
8825;SDS011;4449;50.872;4.714;2022-10-23T04:33:23;3.10;;;2.80;;
8825;SDS011;4449;50.872;4.714;2022-10-23T04:35:51;7.23;;;2.53;;
8825;SDS011;4449;50.872;4.714;2022-10-23T04:38:18;2.33;;;2.20;;
8825;SDS011;4449;50.872;4.714;2022-10-23T04:40:46;3.10;;;2.33;;
8825;SDS011;4449;50.872;4.714;2022-10-23T04:43:14;4.55;;;2.63;;
8825;SDS011;4449;50.872;4.714;2022-10-23T04:45:43;2.40;;;2.20;;
8825;SDS011;4449;50.872;4.714;2022-10-23T04:48:11;3.22;;;2.60;;
8825;SDS011;4449;50.872;4.714;2022-10-23T04:50:38;2.85;;;2.25;;
8825;SDS011;4449;50.872;4.714;2022-10-23T04:53:07;4.22;;;2.20;;
8825;SDS011;4449;50.872;4.714;2022-10-23T04:55:35;5.18;;;2.28;;
8825;SDS011;4449;50.872;4.714;2022-10-23T04:58:03;5.65;;;2.50;;
8825;SDS011;4449;50.872;4.714;2022-10-23T05:00:31;2.28;;;2.08;;
8825;SDS011;4449;50.872;4.714;2022-10-23T05:03:00;2.95;;;2.30;;
8825;SDS011;4449;50.872;4.714;2022-10-23T05:05:28;3.85;;;2.45;;
8825;SDS011;4449;50.872;4.714;2022-10-23T05:07:56;2.70;;;2.50;;
8825;SDS011;4449;50.872;4.714;2022-10-23T05:10:23;2.40;;;2.30;;
8825;SDS011;4449;50.872;4.714;2022-10-23T05:12:51;3.90;;;2.20;;
8825;SDS011;4449;50.872;4.714;2022-10-23T05:15:19;2.83;;;2.10;;
8825;SDS011;4449;50.872;4.714;2022-10-23T05:17:47;2.77;;;2.20;;
8825;SDS011;4449;50.872;4.714;2022-10-23T05:20:18;4.32;;;2.60;;
8825;SDS011;4449;50.872;4.714;2022-10-23T05:22:46;2.60;;;2.40;;
8825;SDS011;4449;50.872;4.714;2022-10-23T05:25:15;2.70;;;2.40;;
8825;SDS011;4449;50.872;4.714;2022-10-23T05:27:43;2.53;;;2.33;;
8825;SDS011;4449;50.872;4.714;2022-10-23T05:30:11;2.57;;;2.17;;
8825;SDS011;4449;50.872;4.714;2022-10-23T05:32:39;4.47;;;2.45;;
8825;SDS011;4449;50.872;4.714;2022-10-23T05:35:07;3.63;;;2.38;;
8825;SDS011;4449;50.872;4.714;2022-10-23T05:37:37;2.20;;;2.10;;
8825;SDS011;4449;50.872;4.714;2022-10-23T05:40:06;3.92;;;2.20;;
8825;SDS011;4449;50.872;4.714;2022-10-23T05:42:34;2.50;;;2.40;;
8825;SDS011;4449;50.872;4.714;2022-10-23T05:45:02;5.15;;;2.10;;
8825;SDS011;4449;50.872;4.714;2022-10-23T05:47:30;2.13;;;1.95;;
8825;SDS011;4449;50.872;4.714;2022-10-23T05:49:58;3.73;;;2.47;;
8825;SDS011;4449;50.872;4.714;2022-10-23T05:52:25;3.50;;;2.30;;
8825;SDS011;4449;50.872;4.714;2022-10-23T05:54:55;3.80;;;2.35;;
8825;SDS011;4449;50.872;4.714;2022-10-23T05:57:22;2.30;;;2.20;;
8825;SDS011;4449;50.872;4.714;2022-10-23T05:59:50;4.18;;;2.35;;
8825;SDS011;4449;50.872;4.714;2022-10-23T06:02:18;2.33;;;2.10;;
8825;SDS011;4449;50.872;4.714;2022-10-23T06:04:45;2.88;;;2.25;;
8825;SDS011;4449;50.872;4.714;2022-10-23T06:07:13;3.20;;;2.50;;
8825;SDS011;4449;50.872;4.714;2022-10-23T06:09:41;2.50;;;2.30;;
8825;SDS011;4449;50.872;4.714;2022-10-23T06:12:10;2.13;;;2.03;;
8825;SDS011;4449;50.872;4.714;2022-10-23T06:14:38;2.72;;;2.20;;
8825;SDS011;4449;50.872;4.714;2022-10-23T06:17:05;1.98;;;1.88;;
8825;SDS011;4449;50.872;4.714;2022-10-23T06:19:33;2.58;;;2.40;;
8825;SDS011;4449;50.872;4.714;2022-10-23T06:22:01;2.63;;;2.40;;
8825;SDS011;4449;50.872;4.714;2022-10-23T06:24:28;3.70;;;2.20;;
8825;SDS011;4449;50.872;4.714;2022-10-23T06:26:56;3.30;;;2.28;;
8825;SDS011;4449;50.872;4.714;2022-10-23T06:29:25;2.42;;;2.22;;
8825;SDS011;4449;50.872;4.714;2022-10-23T06:31:53;3.38;;;2.15;;
8825;SDS011;4449;50.872;4.714;2022-10-23T06:34:20;4.32;;;2.30;;
8825;SDS011;4449;50.872;4.714;2022-10-23T06:36:48;3.00;;;2.33;;
8825;SDS011;4449;50.872;4.714;2022-10-23T06:39:16;3.40;;;2.30;;
8825;SDS011;4449;50.872;4.714;2022-10-23T06:41:45;4.53;;;2.58;;
8825;SDS011;4449;50.872;4.714;2022-10-23T06:44:13;2.10;;;2.00;;
8825;SDS011;4449;50.872;4.714;2022-10-23T06:46:42;2.58;;;2.28;;
8825;SDS011;4449;50.872;4.714;2022-10-23T06:49:12;2.80;;;2.13;;
8825;SDS011;4449;50.872;4.714;2022-10-23T06:51:40;4.90;;;2.28;;
8825;SDS011;4449;50.872;4.714;2022-10-23T06:54:08;2.47;;;2.20;;
8825;SDS011;4449;50.872;4.714;2022-10-23T06:56:36;2.60;;;2.45;;
8825;SDS011;4449;50.872;4.714;2022-10-23T06:59:04;2.15;;;2.05;;
8825;SDS011;4449;50.872;4.714;2022-10-23T07:01:33;2.58;;;2.38;;
8825;SDS011;4449;50.872;4.714;2022-10-23T07:04:02;3.93;;;3.10;;
8825;SDS011;4449;50.872;4.714;2022-10-23T07:06:30;2.65;;;2.45;;
8825;SDS011;4449;50.872;4.714;2022-10-23T07:08:58;2.55;;;2.40;;
8825;SDS011;4449;50.872;4.714;2022-10-23T07:11:26;3.70;;;2.40;;
8825;SDS011;4449;50.872;4.714;2022-10-23T07:13:53;3.80;;;2.42;;
8825;SDS011;4449;50.872;4.714;2022-10-23T07:16:22;4.07;;;2.33;;
8825;SDS011;4449;50.872;4.714;2022-10-23T07:18:52;2.85;;;2.30;;
8825;SDS011;4449;50.872;4.714;2022-10-23T07:21:25;3.60;;;2.20;;
8825;SDS011;4449;50.872;4.714;2022-10-23T07:23:53;2.65;;;2.45;;
8825;SDS011;4449;50.872;4.714;2022-10-23T07:26:20;2.42;;;2.30;;
8825;SDS011;4449;50.872;4.714;2022-10-23T07:28:48;2.63;;;2.42;;
8825;SDS011;4449;50.872;4.714;2022-10-23T07:31:19;2.80;;;2.60;;
8825;SDS011;4449;50.872;4.714;2022-10-23T07:33:47;2.45;;;2.28;;
8825;SDS011;4449;50.872;4.714;2022-10-23T07:36:15;2.60;;;2.40;;
8825;SDS011;4449;50.872;4.714;2022-10-23T07:38:44;2.55;;;2.30;;
8825;SDS011;4449;50.872;4.714;2022-10-23T07:41:12;3.78;;;2.33;;
8825;SDS011;4449;50.872;4.714;2022-10-23T07:43:40;3.08;;;2.30;;
8825;SDS011;4449;50.872;4.714;2022-10-23T07:46:07;3.55;;;2.38;;
8825;SDS011;4449;50.872;4.714;2022-10-23T07:48:35;2.53;;;2.28;;
8825;SDS011;4449;50.872;4.714;2022-10-23T07:51:04;2.33;;;2.17;;
8825;SDS011;4449;50.872;4.714;2022-10-23T07:53:35;3.72;;;2.20;;
8825;SDS011;4449;50.872;4.714;2022-10-23T07:56:09;3.80;;;2.33;;
8825;SDS011;4449;50.872;4.714;2022-10-23T07:58:38;4.53;;;2.40;;
8825;SDS011;4449;50.872;4.714;2022-10-23T08:01:10;3.67;;;2.40;;
8825;SDS011;4449;50.872;4.714;2022-10-23T08:03:39;4.97;;;2.20;;
8825;SDS011;4449;50.872;4.714;2022-10-23T08:06:07;4.63;;;2.38;;
8825;SDS011;4449;50.872;4.714;2022-10-23T08:08:35;3.58;;;2.22;;
8825;SDS011;4449;50.872;4.714;2022-10-23T08:11:03;3.80;;;2.38;;
8825;SDS011;4449;50.872;4.714;2022-10-23T08:13:32;2.30;;;2.10;;
8825;SDS011;4449;50.872;4.714;2022-10-23T08:16:00;3.60;;;2.50;;
8825;SDS011;4449;50.872;4.714;2022-10-23T08:18:27;2.77;;;2.50;;
8825;SDS011;4449;50.872;4.714;2022-10-23T08:20:58;2.30;;;2.10;;
8825;SDS011;4449;50.872;4.714;2022-10-23T08:23:26;3.65;;;2.40;;
8825;SDS011;4449;50.872;4.714;2022-10-23T08:25:58;3.17;;;2.80;;
8825;SDS011;4449;50.872;4.714;2022-10-23T08:28:26;3.08;;;2.50;;
8825;SDS011;4449;50.872;4.714;2022-10-23T08:30:55;2.50;;;2.33;;
8825;SDS011;4449;50.872;4.714;2022-10-23T08:33:23;3.10;;;2.45;;
8825;SDS011;4449;50.872;4.714;2022-10-23T08:35:51;2.53;;;2.30;;
8825;SDS011;4449;50.872;4.714;2022-10-23T08:38:18;2.60;;;2.40;;
8825;SDS011;4449;50.872;4.714;2022-10-23T08:40:46;2.30;;;2.20;;
8825;SDS011;4449;50.872;4.714;2022-10-23T08:43:16;5.90;;;2.67;;
8825;SDS011;4449;50.872;4.714;2022-10-23T08:45:46;4.47;;;2.20;;
8825;SDS011;4449;50.872;4.714;2022-10-23T08:48:17;2.45;;;2.22;;
8825;SDS011;4449;50.872;4.714;2022-10-23T08:50:47;3.67;;;2.83;;
8825;SDS011;4449;50.872;4.714;2022-10-23T08:53:17;5.55;;;2.72;;
8825;SDS011;4449;50.872;4.714;2022-10-23T08:55:51;3.40;;;2.40;;
8825;SDS011;4449;50.872;4.714;2022-10-23T08:58:21;3.45;;;2.10;;
8825;SDS011;4449;50.872;4.714;2022-10-23T09:00:50;2.50;;;2.30;;
8825;SDS011;4449;50.872;4.714;2022-10-23T09:03:19;2.78;;;2.47;;
8825;SDS011;4449;50.872;4.714;2022-10-23T09:05:54;5.57;;;2.85;;
8825;SDS011;4449;50.872;4.714;2022-10-23T09:08:27;3.10;;;2.60;;
8825;SDS011;4449;50.872;4.714;2022-10-23T09:11:00;3.05;;;2.60;;
8825;SDS011;4449;50.872;4.714;2022-10-23T09:16:23;3.63;;;2.70;;
8825;SDS011;4449;50.872;4.714;2022-10-23T09:18:53;5.05;;;2.38;;
8825;SDS011;4449;50.872;4.714;2022-10-23T09:21:24;3.00;;;2.50;;
8825;SDS011;4449;50.872;4.714;2022-10-23T09:23:51;4.05;;;2.30;;
8825;SDS011;4449;50.872;4.714;2022-10-23T09:26:19;4.35;;;2.95;;
8825;SDS011;4449;50.872;4.714;2022-10-23T09:28:48;2.88;;;2.40;;
8825;SDS011;4449;50.872;4.714;2022-10-23T09:31:16;3.67;;;2.47;;
8825;SDS011;4449;50.872;4.714;2022-10-23T09:33:55;3.28;;;2.50;;
8825;SDS011;4449;50.872;4.714;2022-10-23T09:36:24;4.15;;;2.58;;
8825;SDS011;4449;50.872;4.714;2022-10-23T09:38:54;3.65;;;2.80;;
8825;SDS011;4449;50.872;4.714;2022-10-23T09:41:24;2.60;;;2.40;;
8825;SDS011;4449;50.872;4.714;2022-10-23T10:41:34;2.78;;;2.40;;
8825;SDS011;4449;50.872;4.714;2022-10-23T10:44:08;2.83;;;2.55;;
8825;SDS011;4449;50.872;4.714;2022-10-23T10:46:41;6.53;;;3.28;;
8825;SDS011;4449;50.872;4.714;2022-10-23T10:49:11;3.83;;;2.60;;
8825;SDS011;4449;50.872;4.714;2022-10-23T10:51:45;2.93;;;2.70;;
8825;SDS011;4449;50.872;4.714;2022-10-23T10:54:20;2.75;;;2.47;;
8825;SDS011;4449;50.872;4.714;2022-10-23T10:56:50;5.15;;;2.45;;
8825;SDS011;4449;50.872;4.714;2022-10-23T10:59:19;3.25;;;2.60;;
8825;SDS011;4449;50.872;4.714;2022-10-23T11:01:51;4.25;;;2.70;;
8825;SDS011;4449;50.872;4.714;2022-10-23T11:04:21;4.60;;;2.50;;
8825;SDS011;4449;50.872;4.714;2022-10-23T11:06:54;3.40;;;2.70;;
8825;SDS011;4449;50.872;4.714;2022-10-23T11:09:24;3.20;;;2.30;;
8825;SDS011;4449;50.872;4.714;2022-10-23T11:11:54;4.32;;;2.80;;
8825;SDS011;4449;50.872;4.714;2022-10-23T11:14:23;3.97;;;2.30;;
8825;SDS011;4449;50.872;4.714;2022-10-23T11:16:52;5.40;;;2.70;;
8825;SDS011;4449;50.872;4.714;2022-10-23T11:19:22;9.00;;;2.60;;
8825;SDS011;4449;50.872;4.714;2022-10-23T11:21:53;2.58;;;2.38;;
8825;SDS011;4449;50.872;4.714;2022-10-23T11:24:40;5.65;;;2.67;;
8825;SDS011;4449;50.872;4.714;2022-10-23T11:27:20;2.53;;;2.30;;
8825;SDS011;4449;50.872;4.714;2022-10-23T11:29:58;2.78;;;2.50;;
8825;SDS011;4449;50.872;4.714;2022-10-23T11:32:47;3.67;;;2.65;;
8825;SDS011;4449;50.872;4.714;2022-10-23T11:35:23;5.40;;;2.47;;
8825;SDS011;4449;50.872;4.714;2022-10-23T11:37:58;4.28;;;2.33;;
8825;SDS011;4449;50.872;4.714;2022-10-23T11:40:27;3.30;;;2.60;;
8825;SDS011;4449;50.872;4.714;2022-10-23T11:42:57;2.42;;;2.22;;
8825;SDS011;4449;50.872;4.714;2022-10-23T11:45:28;3.63;;;2.13;;
8825;SDS011;4449;50.872;4.714;2022-10-23T11:47:57;3.30;;;2.10;;
8825;SDS011;4449;50.872;4.714;2022-10-23T11:50:27;4.75;;;2.40;;
8825;SDS011;4449;50.872;4.714;2022-10-23T11:52:59;2.20;;;2.00;;
8825;SDS011;4449;50.872;4.714;2022-10-23T11:55:29;3.22;;;2.10;;
8825;SDS011;4449;50.872;4.714;2022-10-23T12:00:58;3.30;;;2.30;;
8825;SDS011;4449;50.872;4.714;2022-10-23T12:03:28;3.40;;;2.50;;
8825;SDS011;4449;50.872;4.714;2022-10-23T12:05:58;2.63;;;2.42;;
8825;SDS011;4449;50.872;4.714;2022-10-23T12:08:27;2.60;;;2.40;;
8825;SDS011;4449;50.872;4.714;2022-10-23T12:10:56;2.65;;;2.22;;
8825;SDS011;4449;50.872;4.714;2022-10-23T12:13:43;3.65;;;2.20;;
8825;SDS011;4449;50.872;4.714;2022-10-23T12:16:12;3.67;;;2.28;;
8825;SDS011;4449;50.872;4.714;2022-10-23T12:18:44;2.42;;;2.22;;
8825;SDS011;4449;50.872;4.714;2022-10-23T12:21:14;3.13;;;2.22;;
8825;SDS011;4449;50.872;4.714;2022-10-23T12:29:21;4.22;;;1.88;;
8825;SDS011;4449;50.872;4.714;2022-10-23T12:31:53;2.92;;;2.30;;
8825;SDS011;4449;50.872;4.714;2022-10-23T12:34:27;4.00;;;2.20;;
8825;SDS011;4449;50.872;4.714;2022-10-23T12:37:07;2.75;;;2.35;;
8825;SDS011;4449;50.872;4.714;2022-10-23T12:39:38;4.35;;;2.10;;
8825;SDS011;4449;50.872;4.714;2022-10-23T12:42:10;5.05;;;2.40;;
8825;SDS011;4449;50.872;4.714;2022-10-23T12:44:41;3.60;;;2.40;;
8825;SDS011;4449;50.872;4.714;2022-10-23T12:47:12;3.50;;;2.10;;
8825;SDS011;4449;50.872;4.714;2022-10-23T12:49:47;3.88;;;2.20;;
8825;SDS011;4449;50.872;4.714;2022-10-23T12:52:15;3.75;;;2.30;;
8825;SDS011;4449;50.872;4.714;2022-10-23T12:54:43;3.10;;;2.10;;
8825;SDS011;4449;50.872;4.714;2022-10-23T12:57:18;2.00;;;1.90;;
8825;SDS011;4449;50.872;4.714;2022-10-23T12:59:47;3.22;;;1.90;;
8825;SDS011;4449;50.872;4.714;2022-10-23T13:02:22;4.95;;;2.00;;
8825;SDS011;4449;50.872;4.714;2022-10-23T13:04:51;3.33;;;2.10;;
8825;SDS011;4449;50.872;4.714;2022-10-23T13:07:20;2.33;;;2.10;;
8825;SDS011;4449;50.872;4.714;2022-10-23T13:09:49;5.00;;;2.17;;
8825;SDS011;4449;50.872;4.714;2022-10-23T13:12:18;2.00;;;1.90;;
8825;SDS011;4449;50.872;4.714;2022-10-23T13:14:56;3.38;;;2.30;;
8825;SDS011;4449;50.872;4.714;2022-10-23T13:17:36;2.08;;;1.98;;
8825;SDS011;4449;50.872;4.714;2022-10-23T13:20:18;3.38;;;2.10;;
8825;SDS011;4449;50.872;4.714;2022-10-23T13:22:47;2.90;;;1.93;;
8825;SDS011;4449;50.872;4.714;2022-10-23T13:25:19;2.70;;;1.70;;
8825;SDS011;4449;50.872;4.714;2022-10-23T13:27:47;3.45;;;2.50;;
8825;SDS011;4449;50.872;4.714;2022-10-23T13:30:28;2.50;;;1.90;;
8825;SDS011;4449;50.872;4.714;2022-10-23T13:32:57;4.82;;;2.38;;
8825;SDS011;4449;50.872;4.714;2022-10-23T13:35:25;5.05;;;2.05;;
8825;SDS011;4449;50.872;4.714;2022-10-23T13:37:53;2.63;;;2.00;;
8825;SDS011;4449;50.872;4.714;2022-10-23T13:40:21;4.20;;;2.03;;
8825;SDS011;4449;50.872;4.714;2022-10-23T13:42:50;3.75;;;3.20;;
8825;SDS011;4449;50.872;4.714;2022-10-23T13:45:19;2.95;;;2.17;;
8825;SDS011;4449;50.872;4.714;2022-10-23T13:47:47;2.03;;;1.92;;
8825;SDS011;4449;50.872;4.714;2022-10-23T13:50:17;2.25;;;1.95;;
8825;SDS011;4449;50.872;4.714;2022-10-23T13:52:44;2.50;;;2.30;;
8825;SDS011;4449;50.872;4.714;2022-10-23T13:55:15;2.50;;;2.10;;
8825;SDS011;4449;50.872;4.714;2022-10-23T13:57:44;2.72;;;2.28;;
8825;SDS011;4449;50.872;4.714;2022-10-23T14:00:12;3.08;;;2.10;;
8825;SDS011;4449;50.872;4.714;2022-10-23T14:02:40;2.47;;;2.28;;
8825;SDS011;4449;50.872;4.714;2022-10-23T14:05:08;4.35;;;2.22;;
8825;SDS011;4449;50.872;4.714;2022-10-23T14:07:37;3.08;;;2.20;;
8825;SDS011;4449;50.872;4.714;2022-10-23T14:10:05;2.60;;;2.13;;
8825;SDS011;4449;50.872;4.714;2022-10-23T14:12:37;2.30;;;2.20;;
8825;SDS011;4449;50.872;4.714;2022-10-23T14:15:05;3.85;;;2.30;;
8825;SDS011;4449;50.872;4.714;2022-10-23T14:17:33;2.40;;;2.20;;
8825;SDS011;4449;50.872;4.714;2022-10-23T14:20:01;3.88;;;2.47;;
8825;SDS011;4449;50.872;4.714;2022-10-23T14:22:29;2.67;;;2.00;;
8825;SDS011;4449;50.872;4.714;2022-10-23T14:24:58;2.17;;;1.98;;
8825;SDS011;4449;50.872;4.714;2022-10-23T14:27:26;2.55;;;2.17;;
8825;SDS011;4449;50.872;4.714;2022-10-23T14:29:54;3.45;;;2.30;;
8825;SDS011;4449;50.872;4.714;2022-10-23T14:32:22;3.15;;;2.25;;
8825;SDS011;4449;50.872;4.714;2022-10-23T14:34:50;2.80;;;2.30;;
8825;SDS011;4449;50.872;4.714;2022-10-23T14:37:18;4.03;;;2.50;;
8825;SDS011;4449;50.872;4.714;2022-10-23T14:39:46;5.30;;;2.45;;
8825;SDS011;4449;50.872;4.714;2022-10-23T14:42:16;2.42;;;2.20;;
8825;SDS011;4449;50.872;4.714;2022-10-23T14:44:44;2.73;;;2.40;;
8825;SDS011;4449;50.872;4.714;2022-10-23T14:47:13;3.37;;;2.50;;
8825;SDS011;4449;50.872;4.714;2022-10-23T14:49:41;6.57;;;2.80;;
8825;SDS011;4449;50.872;4.714;2022-10-23T14:52:10;2.60;;;2.45;;
8825;SDS011;4449;50.872;4.714;2022-10-23T14:54:38;3.15;;;2.50;;
8825;SDS011;4449;50.872;4.714;2022-10-23T14:57:06;4.60;;;2.40;;
8825;SDS011;4449;50.872;4.714;2022-10-23T14:59:35;4.15;;;2.58;;
8825;SDS011;4449;50.872;4.714;2022-10-23T15:02:03;4.18;;;2.70;;
8825;SDS011;4449;50.872;4.714;2022-10-23T15:04:30;4.45;;;2.55;;
8825;SDS011;4449;50.872;4.714;2022-10-23T15:06:58;2.92;;;2.20;;
8825;SDS011;4449;50.872;4.714;2022-10-23T15:09:26;2.63;;;2.28;;
8825;SDS011;4449;50.872;4.714;2022-10-23T15:11:53;4.10;;;2.53;;
8825;SDS011;4449;50.872;4.714;2022-10-23T15:14:21;4.32;;;2.33;;
8825;SDS011;4449;50.872;4.714;2022-10-23T15:16:50;2.58;;;2.38;;
8825;SDS011;4449;50.872;4.714;2022-10-23T15:19:17;2.58;;;2.42;;
8825;SDS011;4449;50.872;4.714;2022-10-23T15:21:45;4.20;;;2.78;;
8825;SDS011;4449;50.872;4.714;2022-10-23T15:24:13;3.25;;;2.95;;
8825;SDS011;4449;50.872;4.714;2022-10-23T15:26:41;4.88;;;2.70;;
8825;SDS011;4449;50.872;4.714;2022-10-23T15:29:09;3.20;;;2.58;;
8825;SDS011;4449;50.872;4.714;2022-10-23T15:31:39;3.20;;;2.58;;
8825;SDS011;4449;50.872;4.714;2022-10-23T15:34:08;4.60;;;2.22;;
8825;SDS011;4449;50.872;4.714;2022-10-23T15:36:36;4.70;;;2.90;;
8825;SDS011;4449;50.872;4.714;2022-10-23T15:39:04;3.30;;;2.75;;
8825;SDS011;4449;50.872;4.714;2022-10-23T15:41:33;3.05;;;2.70;;
8825;SDS011;4449;50.872;4.714;2022-10-23T15:44:01;2.43;;;2.23;;
8825;SDS011;4449;50.872;4.714;2022-10-23T15:46:29;3.40;;;2.20;;
8825;SDS011;4449;50.872;4.714;2022-10-23T15:48:57;3.65;;;2.53;;
8825;SDS011;4449;50.872;4.714;2022-10-23T15:51:26;2.65;;;2.42;;
8825;SDS011;4449;50.872;4.714;2022-10-23T15:53:54;4.40;;;2.55;;
8825;SDS011;4449;50.872;4.714;2022-10-23T15:56:22;4.55;;;2.70;;
8825;SDS011;4449;50.872;4.714;2022-10-23T15:58:50;4.13;;;3.08;;
8825;SDS011;4449;50.872;4.714;2022-10-23T16:01:17;2.95;;;2.35;;
8825;SDS011;4449;50.872;4.714;2022-10-23T16:03:45;4.90;;;3.00;;
8825;SDS011;4449;50.872;4.714;2022-10-23T16:06:14;3.55;;;2.17;;
8825;SDS011;4449;50.872;4.714;2022-10-23T16:08:43;5.50;;;2.70;;
8825;SDS011;4449;50.872;4.714;2022-10-23T16:11:12;4.10;;;2.30;;
8825;SDS011;4449;50.872;4.714;2022-10-23T16:13:40;5.75;;;2.70;;
8825;SDS011;4449;50.872;4.714;2022-10-23T16:16:09;5.18;;;2.63;;
8825;SDS011;4449;50.872;4.714;2022-10-23T16:18:37;2.90;;;2.70;;
8825;SDS011;4449;50.872;4.714;2022-10-23T16:21:05;7.70;;;2.80;;
8825;SDS011;4449;50.872;4.714;2022-10-23T16:23:33;3.30;;;2.90;;
8825;SDS011;4449;50.872;4.714;2022-10-23T16:26:03;3.97;;;2.80;;
8825;SDS011;4449;50.872;4.714;2022-10-23T16:28:31;2.85;;;2.28;;
8825;SDS011;4449;50.872;4.714;2022-10-23T16:30:59;2.55;;;2.20;;
8825;SDS011;4449;50.872;4.714;2022-10-23T16:33:27;2.50;;;2.30;;
8825;SDS011;4449;50.872;4.714;2022-10-23T16:35:54;4.80;;;3.40;;
8825;SDS011;4449;50.872;4.714;2022-10-23T16:38:28;3.30;;;2.20;;
8825;SDS011;4449;50.872;4.714;2022-10-23T16:40:55;4.57;;;2.80;;